Time;durP1;ratioP1;P1;durP2;ratioP2;P2;SDS_P1;SDS_P2;PMS_P1;PMS_P2;Temp;Humidity;BMP_temperature;BMP_pressure;BME280_temperature;BME280_humidity;BME280_pressure;Samples;Min_cycle;Max_cycle;Signal;HPM_P1;HPM_P2
2022/08/03 00:00:41;;;;;;;11.57;10.77;;;19.90;99.90;;;;;;5021443;28;20227;-53
2022/08/03 00:03:06;;;;;;;11.77;10.77;;;19.90;99.90;;;;;;5009349;28;20208;-51
2022/08/03 00:05:32;;;;;;;11.60;10.80;;;19.80;99.90;;;;;;5011682;28;20678;-57
2022/08/03 00:07:59;;;;;;;11.77;10.97;;;19.80;99.90;;;;;;5023902;28;20225;-55
2022/08/03 00:10:25;;;;;;;11.17;10.47;;;19.70;99.90;;;;;;5021911;28;20522;-51
2022/08/03 00:12:51;;;;;;;11.17;10.30;;;19.70;99.90;;;;;;5014263;28;20442;-53
2022/08/03 00:15:18;;;;;;;12.00;11.10;;;19.70;99.90;;;;;;5027355;28;20429;-54
2022/08/03 00:17:44;;;;;;;11.77;10.97;;;19.60;99.90;;;;;;5020616;28;20441;-49
2022/08/03 00:20:10;;;;;;;10.80;10.00;;;19.50;99.90;;;;;;5019545;28;20438;-55
2022/08/03 00:22:36;;;;;;;11.87;11.07;;;19.50;99.90;;;;;;5008905;28;20439;-55
2022/08/03 00:25:02;;;;;;;12.17;11.27;;;19.50;99.90;;;;;;5010345;28;20535;-54
2022/08/03 00:27:28;;;;;;;11.40;10.53;;;19.50;99.90;;;;;;5008519;28;20187;-55
2022/08/03 00:29:53;;;;;;;11.87;10.97;;;19.40;99.90;;;;;;5007869;28;20934;-57
2022/08/03 00:32:19;;;;;;;12.13;11.20;;;19.40;99.90;;;;;;5005153;28;20215;-54
2022/08/03 00:34:44;;;;;;;12.50;11.50;;;19.40;99.90;;;;;;5018835;28;20179;-52
2022/08/03 00:37:10;;;;;;;12.43;11.53;;;19.30;99.90;;;;;;5019279;28;20194;-52
2022/08/03 00:39:35;;;;;;;12.77;11.67;;;19.30;99.90;;;;;;5024630;28;20192;-50
2022/08/03 00:42:03;;;;;;;12.40;11.50;;;19.20;99.90;;;;;;5009821;28;20705;-50
2022/08/03 00:44:28;;;;;;;13.60;12.50;;;19.20;99.90;;;;;;5029153;28;20203;-54
2022/08/03 00:46:54;;;;;;;12.37;11.50;;;19.20;99.90;;;;;;5018888;28;21310;-56
2022/08/03 00:49:20;;;;;;;12.57;11.67;;;19.20;99.90;;;;;;5021473;28;20646;-49
2022/08/03 00:51:46;;;;;;;12.37;11.57;;;19.20;99.90;;;;;;5021735;28;20182;-55
2022/08/03 00:54:12;;;;;;;12.30;11.40;;;19.10;99.90;;;;;;5009247;28;20199;-54
2022/08/03 00:56:39;;;;;;;13.27;12.27;;;19.10;99.90;;;;;;5022198;28;20463;-52
2022/08/03 00:59:05;;;;;;;14.00;12.80;;;19.00;99.90;;;;;;5017113;28;20525;-50
2022/08/03 01:01:31;;;;;;;13.20;12.07;;;19.00;99.90;;;;;;5011700;28;20462;-54
2022/08/03 01:03:56;;;;;;;13.50;12.30;;;18.90;99.90;;;;;;5012410;28;20562;-53
2022/08/03 01:06:32;;;;;;;13.17;12.27;;;18.90;99.90;;;;;;5011471;28;20245;-53
2022/08/03 01:09:02;;;;;;;13.50;12.50;;;18.90;99.90;;;;;;5018739;28;20230;-53
2022/08/03 01:11:39;;;;;;;13.73;12.63;;;18.80;99.90;;;;;;5010425;28;21086;-52
2022/08/03 01:14:19;;;;;;;12.73;11.83;;;18.80;99.90;;;;;;5032530;28;20416;-51
2022/08/03 01:17:11;;;;;;;13.50;12.40;;;18.70;99.90;;;;;;5019360;28;20438;-52
2022/08/03 01:19:49;;;;;;;14.33;13.00;;;18.70;99.90;;;;;;5031524;28;20429;-49
2022/08/03 01:22:30;;;;;;;15.17;13.63;;;18.70;99.90;;;;;;5016565;28;20434;-54
2022/08/03 01:25:08;;;;;;;14.70;13.53;;;18.60;99.90;;;;;;5004276;28;20935;-56
2022/08/03 01:28:00;;;;;;;13.90;12.90;;;18.60;99.90;;;;;;5007141;28;20510;-57
2022/08/03 01:30:32;;;;;;;14.23;12.87;;;18.60;99.90;;;;;;5025580;28;20833;-53
2022/08/03 01:33:09;;;;;;;13.87;12.77;;;18.50;99.90;;;;;;5014961;28;20437;-53
2022/08/03 01:35:41;;;;;;;14.27;13.03;;;18.50;99.90;;;;;;5014835;28;20445;-56
2022/08/03 01:38:21;;;;;;;13.70;12.47;;;18.40;99.90;;;;;;5016667;28;20619;-51
2022/08/03 01:40:47;;;;;;;14.97;13.53;;;18.40;99.90;;;;;;5024367;28;20434;-51
2022/08/03 01:43:18;;;;;;;13.80;12.70;;;18.30;99.90;;;;;;5009911;28;20639;-50
2022/08/03 01:45:44;;;;;;;13.33;12.33;;;18.30;99.90;;;;;;5024566;28;20536;-50
2022/08/03 01:48:14;;;;;;;14.00;12.90;;;18.20;99.90;;;;;;5011103;28;20567;-49
2022/08/03 01:50:41;;;;;;;13.70;12.67;;;18.20;99.90;;;;;;5015308;28;20463;-54
2022/08/03 01:53:09;;;;;;;13.87;12.67;;;18.20;99.90;;;;;;5026271;28;20433;-54
2022/08/03 01:55:36;;;;;;;13.17;12.03;;;18.10;99.90;;;;;;5012477;28;20905;-54
2022/08/03 01:58:03;;;;;;;13.77;12.67;;;18.00;99.90;;;;;;5008804;28;20804;-51
2022/08/03 02:00:31;;;;;;;13.30;12.30;;;18.00;99.90;;;;;;5024358;28;20495;-52
2022/08/03 02:02:57;;;;;;;13.97;12.87;;;18.00;99.90;;;;;;5010823;28;20457;-56
2022/08/03 02:05:25;;;;;;;13.63;12.63;;;17.90;99.90;;;;;;5026039;28;20437;-51
2022/08/03 02:07:51;;;;;;;14.13;12.77;;;17.90;99.90;;;;;;5010365;28;20418;-54
2022/08/03 02:10:19;;;;;;;14.07;12.97;;;17.90;99.90;;;;;;5012556;28;20446;-50
2022/08/03 02:12:46;;;;;;;14.83;13.63;;;17.80;99.90;;;;;;5012161;28;20453;-54
2022/08/03 02:15:14;;;;;;;14.33;13.20;;;17.80;99.90;;;;;;5011224;28;20433;-50
2022/08/03 02:17:42;;;;;;;15.17;13.93;;;17.80;99.90;;;;;;5025965;28;20507;-53
2022/08/03 02:20:10;;;;;;;15.37;14.00;;;17.70;99.90;;;;;;5010655;28;21164;-51
2022/08/03 02:22:39;;;;;;;15.73;14.50;;;17.70;99.90;;;;;;5022393;28;20441;-54
2022/08/03 02:25:07;;;;;;;16.80;15.50;;;17.70;99.90;;;;;;5010064;28;20952;-52
2022/08/03 02:27:34;;;;;;;16.43;15.03;;;17.70;99.90;;;;;;5010047;28;20438;-53
2022/08/03 02:30:07;;;;;;;16.53;15.23;;;17.70;99.90;;;;;;5010610;28;20457;-54
2022/08/03 02:32:37;;;;;;;16.30;15.00;;;17.60;99.90;;;;;;5017211;28;20472;-50
2022/08/03 02:35:05;;;;;;;16.90;15.50;;;17.60;99.90;;;;;;5014274;28;20553;-56
2022/08/03 02:37:34;;;;;;;15.70;14.50;;;17.60;99.90;;;;;;5016723;28;20441;-51
2022/08/03 02:40:04;;;;;;;15.70;14.50;;;17.60;99.90;;;;;;5014256;28;20862;-52
2022/08/03 02:42:34;;;;;;;16.73;15.23;;;17.60;99.90;;;;;;5009644;28;20442;-57
2022/08/03 02:45:05;;;;;;;17.23;15.73;;;17.60;99.90;;;;;;5013057;28;20496;-50
2022/08/03 02:47:34;;;;;;;16.23;14.90;;;17.60;99.90;;;;;;5015574;28;20477;-52
2022/08/03 02:50:01;;;;;;;17.70;16.27;;;17.50;99.90;;;;;;5030252;28;20455;-50
2022/08/03 02:52:28;;;;;;;16.90;15.37;;;17.50;99.90;;;;;;5006489;28;20438;-54
2022/08/03 02:54:58;;;;;;;17.17;15.87;;;17.50;99.90;;;;;;5016706;28;20435;-51
2022/08/03 02:57:26;;;;;;;16.60;15.10;;;17.50;99.90;;;;;;5006969;28;20443;-54
2022/08/03 02:59:52;;;;;;;17.30;15.90;;;17.50;99.90;;;;;;5009994;28;20577;-50
2022/08/03 03:02:19;;;;;;;17.17;15.73;;;17.40;99.90;;;;;;5010026;28;20448;-56
2022/08/03 03:04:46;;;;;;;17.97;16.37;;;17.50;99.90;;;;;;5013194;28;20944;-53
2022/08/03 03:07:13;;;;;;;16.93;15.63;;;17.40;99.90;;;;;;5022094;28;20445;-50
2022/08/03 03:09:39;;;;;;;17.50;16.00;;;17.40;99.90;;;;;;5014172;28;20524;-53
2022/08/03 03:12:08;;;;;;;18.80;17.10;;;17.40;99.90;;;;;;5017955;28;20476;-53
2022/08/03 03:14:36;;;;;;;19.23;17.43;;;17.40;99.90;;;;;;5029221;28;20459;-53
2022/08/03 03:17:02;;;;;;;17.70;16.17;;;17.30;99.90;;;;;;5013828;28;20454;-55
2022/08/03 03:19:31;;;;;;;18.80;17.20;;;17.40;99.90;;;;;;5016772;28;20453;-54
2022/08/03 03:22:01;;;;;;;18.60;16.90;;;17.30;99.90;;;;;;5008338;28;20443;-52
2022/08/03 03:24:28;;;;;;;19.23;17.63;;;17.30;99.90;;;;;;4998777;28;20687;-52
2022/08/03 03:26:55;;;;;;;18.50;16.80;;;17.30;99.90;;;;;;5006128;28;20544;-54
2022/08/03 03:29:21;;;;;;;18.20;16.70;;;17.30;99.90;;;;;;5029717;28;20426;-48
2022/08/03 03:31:47;;;;;;;18.90;17.30;;;17.30;99.90;;;;;;5015802;28;20446;-50
2022/08/03 03:34:13;;;;;;;18.47;17.03;;;17.20;99.90;;;;;;5021156;28;20199;-51
2022/08/03 03:36:39;;;;;;;18.53;17.03;;;17.20;99.90;;;;;;5008397;28;20460;-54
2022/08/03 03:39:05;;;;;;;18.13;16.63;;;17.20;99.90;;;;;;5018798;28;20880;-50
2022/08/03 03:41:30;;;;;;;18.47;17.00;;;17.20;99.90;;;;;;5011709;28;20191;-52
2022/08/03 03:43:56;;;;;;;17.70;16.30;;;17.20;99.90;;;;;;5011692;28;20214;-53
2022/08/03 03:46:22;;;;;;;19.90;18.03;;;17.20;99.90;;;;;;5009980;28;20436;-54
2022/08/03 03:48:48;;;;;;;18.23;16.83;;;17.10;99.90;;;;;;5017118;28;20451;-55
2022/08/03 03:51:14;;;;;;;18.87;17.20;;;17.10;99.90;;;;;;5008865;28;20254;-51
2022/08/03 03:53:41;;;;;;;19.40;17.57;;;17.10;99.90;;;;;;5008644;28;20190;-51
2022/08/03 03:56:06;;;;;;;19.87;18.17;;;17.10;99.90;;;;;;5001756;28;20862;-53
2022/08/03 03:58:32;;;;;;;17.57;15.97;;;17.10;99.90;;;;;;5017582;28;20472;-53
2022/08/03 04:00:58;;;;;;;22.70;18.63;;;17.10;99.90;;;;;;5014330;28;20201;-53
2022/08/03 04:03:24;;;;;;;19.43;17.93;;;17.10;99.90;;;;;;5021566;28;20294;-57
2022/08/03 04:11:18;;;;;;;19.83;18.00;;;17.10;99.90;;;;;;5020194;28;20463;-53
2022/08/03 04:13:54;;;;;;;18.97;17.37;;;17.10;99.90;;;;;;5020223;28;20488;-52
2022/08/03 04:16:23;;;;;;;18.73;17.23;;;17.10;99.90;;;;;;5017631;28;20188;-54
2022/08/03 04:18:54;;;;;;;20.10;18.20;;;17.10;99.90;;;;;;5018790;28;20439;-49
2022/08/03 04:21:22;;;;;;;19.67;18.07;;;17.20;99.90;;;;;;5022331;28;21147;-52
2022/08/03 04:23:50;;;;;;;18.53;17.03;;;17.10;99.90;;;;;;5014489;28;21069;-53
2022/08/03 04:26:19;;;;;;;19.10;17.60;;;17.20;99.90;;;;;;5017736;28;20448;-50
2022/08/03 04:28:46;;;;;;;19.07;17.50;;;17.20;99.90;;;;;;5006394;28;20423;-53
2022/08/03 04:31:14;;;;;;;18.73;17.03;;;17.30;99.90;;;;;;5018258;28;20983;-50
2022/08/03 04:33:42;;;;;;;19.50;17.90;;;17.30;99.90;;;;;;5009149;28;20431;-54
2022/08/03 04:36:11;;;;;;;20.13;17.70;;;17.30;99.90;;;;;;5001588;28;20549;-52
2022/08/03 04:39:01;;;;;;;18.93;17.33;;;17.40;99.90;;;;;;5007395;28;20450;-48
2022/08/03 04:41:29;;;;;;;19.23;17.47;;;17.50;99.90;;;;;;5003926;28;20445;-53
2022/08/03 04:43:57;;;;;;;19.57;17.87;;;17.60;99.90;;;;;;4994227;28;20469;-51
2022/08/03 04:46:27;;;;;;;19.27;17.60;;;17.60;99.90;;;;;;5014792;28;20452;-53
2022/08/03 04:48:54;;;;;;;17.97;16.50;;;17.70;99.90;;;;;;5024559;28;20614;-48
2022/08/03 04:51:20;;;;;;;19.33;17.63;;;17.80;99.90;;;;;;5009372;28;20494;-50
2022/08/03 04:53:46;;;;;;;18.77;17.07;;;17.80;99.90;;;;;;5021531;28;20470;-52
2022/08/03 04:56:11;;;;;;;18.13;16.20;;;17.90;99.90;;;;;;5010969;28;20189;-55
2022/08/03 04:58:37;;;;;;;17.23;15.80;;;18.00;99.90;;;;;;5009882;28;20896;-50
2022/08/03 05:01:02;;;;;;;17.97;16.37;;;18.10;99.90;;;;;;5007454;28;20203;-50
2022/08/03 05:03:28;;;;;;;16.27;14.97;;;18.10;99.90;;;;;;5010077;28;20795;-53
2022/08/03 05:05:54;;;;;;;15.77;14.57;;;18.10;99.90;;;;;;5021027;28;20179;-51
2022/08/03 05:08:20;;;;;;;16.60;15.27;;;18.10;99.90;;;;;;5008585;28;20193;-54
2022/08/03 05:10:46;;;;;;;16.30;15.10;;;18.10;99.90;;;;;;5021431;28;20780;-50
2022/08/03 05:13:12;;;;;;;16.80;15.40;;;18.20;99.90;;;;;;5018710;28;20726;-53
2022/08/03 05:15:39;;;;;;;14.73;13.63;;;18.20;99.90;;;;;;5008895;28;20195;-52
2022/08/03 05:18:05;;;;;;;14.33;13.23;;;18.30;99.90;;;;;;5005736;28;20427;-54
2022/08/03 05:20:31;;;;;;;14.20;12.90;;;18.50;99.90;;;;;;4998076;28;20444;-53
2022/08/03 05:22:57;;;;;;;15.00;13.80;;;18.60;99.90;;;;;;5009887;28;20211;-51
2022/08/03 05:25:23;;;;;;;13.80;12.80;;;18.70;99.90;;;;;;5011107;28;20614;-51
2022/08/03 05:27:48;;;;;;;13.90;12.73;;;18.80;99.90;;;;;;5021186;28;20509;-49
2022/08/03 05:30:14;;;;;;;14.17;13.00;;;18.90;99.90;;;;;;5017397;28;20882;-50
2022/08/03 05:32:40;;;;;;;13.53;12.50;;;19.00;99.90;;;;;;5025803;28;20269;-51
2022/08/03 05:35:06;;;;;;;13.63;12.50;;;19.10;99.90;;;;;;5013334;28;20529;-56
2022/08/03 05:37:32;;;;;;;13.27;12.27;;;19.30;99.90;;;;;;5009138;28;20191;-48
2022/08/03 05:39:57;;;;;;;13.30;12.20;;;19.50;99.90;;;;;;5006232;28;20428;-49
2022/08/03 05:42:23;;;;;;;13.10;12.10;;;19.60;99.90;;;;;;5024959;28;20210;-53
2022/08/03 05:44:49;;;;;;;12.90;11.90;;;19.70;99.90;;;;;;5011046;28;20660;-52
2022/08/03 05:47:14;;;;;;;14.07;12.80;;;19.90;99.90;;;;;;5010829;28;20196;-50
2022/08/03 05:49:40;;;;;;;13.10;12.20;;;19.90;99.90;;;;;;5021414;28;20182;-54
2022/08/03 05:52:05;;;;;;;12.23;11.33;;;20.10;99.90;;;;;;5031684;28;20187;-50
2022/08/03 05:54:31;;;;;;;13.07;12.17;;;20.20;99.90;;;;;;5027197;28;20207;-49
2022/08/03 05:56:56;;;;;;;12.73;11.73;;;20.40;99.90;;;;;;5017458;28;20251;-52
2022/08/03 05:59:22;;;;;;;11.03;10.23;;;20.50;99.90;;;;;;5029999;28;21132;-54
2022/08/03 06:01:47;;;;;;;12.27;11.33;;;20.50;99.90;;;;;;5014525;28;20188;-50
2022/08/03 06:04:13;;;;;;;12.13;11.17;;;20.60;99.90;;;;;;5023396;28;20211;-51
2022/08/03 06:06:40;;;;;;;12.13;11.13;;;20.70;99.90;;;;;;5010187;28;20887;-53
2022/08/03 06:09:06;;;;;;;12.60;11.60;;;20.80;99.90;;;;;;5010779;28;20435;-52
2022/08/03 06:11:32;;;;;;;12.57;11.50;;;21.00;99.90;;;;;;5009376;28;20835;-53
2022/08/03 06:13:57;;;;;;;10.90;10.20;;;21.10;99.90;;;;;;5008651;28;20643;-52
2022/08/03 06:16:23;;;;;;;11.33;10.53;;;21.20;99.90;;;;;;5009492;28;20196;-52
2022/08/03 06:18:48;;;;;;;12.37;11.40;;;21.20;99.90;;;;;;5010559;28;20180;-51
2022/08/03 06:21:15;;;;;;;12.70;11.57;;;21.50;99.90;;;;;;5010303;28;20190;-52
2022/08/03 06:23:42;;;;;;;12.33;11.30;;;21.50;99.90;;;;;;5012292;28;20661;-53
2022/08/03 06:26:07;;;;;;;10.83;10.13;;;21.50;99.90;;;;;;5014360;28;20933;-51
2022/08/03 06:28:33;;;;;;;12.60;11.23;;;21.70;99.90;;;;;;5011554;28;20444;-58
2022/08/03 06:30:59;;;;;;;10.20;9.40;;;21.90;99.90;;;;;;5013695;28;20185;-53
2022/08/03 06:33:25;;;;;;;10.60;9.90;;;22.00;99.90;;;;;;5011947;28;20236;-52
2022/08/03 06:35:50;;;;;;;10.40;9.70;;;22.20;99.90;;;;;;5021889;28;20197;-48
2022/08/03 06:38:16;;;;;;;9.87;9.27;;;22.20;99.90;;;;;;5018231;28;20452;-52
2022/08/03 06:40:42;;;;;;;9.73;9.13;;;22.30;99.90;;;;;;5025784;28;20220;-53
2022/08/03 06:43:07;;;;;;;9.93;9.13;;;22.50;99.90;;;;;;5013273;28;20756;-54
2022/08/03 06:45:34;;;;;;;9.67;8.87;;;22.60;99.90;;;;;;5014736;28;20297;-54
2022/08/03 06:48:10;;;;;;;9.00;8.27;;;22.70;99.90;;;;;;5012246;28;20218;-55
2022/08/03 06:50:38;;;;;;;9.80;9.00;;;22.80;99.80;;;;;;5028611;28;20417;-58
2022/08/03 06:53:04;;;;;;;9.97;9.13;;;22.80;99.00;;;;;;5023071;28;20455;-56
2022/08/03 06:55:30;;;;;;;9.93;9.30;;;23.00;99.20;;;;;;5024806;28;20433;-50
2022/08/03 06:57:56;;;;;;;9.20;8.60;;;23.10;98.60;;;;;;5012491;28;20452;-53
2022/08/03 07:00:22;;;;;;;9.03;8.53;;;23.30;97.90;;;;;;5028245;28;20465;-54
2022/08/03 07:02:47;;;;;;;8.90;8.23;;;23.40;97.60;;;;;;5010854;28;20972;-49
2022/08/03 07:05:13;;;;;;;9.33;8.73;;;23.50;97.30;;;;;;5028728;28;20186;-53
2022/08/03 07:07:40;;;;;;;8.60;8.00;;;23.70;96.30;;;;;;5017107;28;20540;-53
2022/08/03 07:10:07;;;;;;;8.73;8.20;;;23.70;95.70;;;;;;5028229;28;20556;-55
2022/08/03 07:12:33;;;;;;;8.40;7.90;;;23.80;95.20;;;;;;5029440;28;20476;-53
2022/08/03 07:15:00;;;;;;;9.27;8.67;;;23.90;94.80;;;;;;5029905;28;20480;-55
2022/08/03 07:17:26;;;;;;;9.20;8.60;;;24.00;94.50;;;;;;5007414;28;20515;-55
2022/08/03 07:19:52;;;;;;;8.57;7.97;;;24.10;94.60;;;;;;5013944;28;21268;-54
2022/08/03 07:22:17;;;;;;;8.80;8.10;;;24.30;93.90;;;;;;5017721;28;20442;-50
2022/08/03 07:24:44;;;;;;;8.77;8.07;;;24.40;93.70;;;;;;5024446;28;20266;-54
2022/08/03 07:27:10;;;;;;;8.40;7.80;;;24.60;93.90;;;;;;5013964;28;20239;-49
2022/08/03 07:29:36;;;;;;;8.50;8.00;;;24.70;92.90;;;;;;5028065;28;20426;-54
2022/08/03 07:32:03;;;;;;;9.33;8.63;;;24.90;92.60;;;;;;5017619;28;20226;-51
2022/08/03 07:34:29;;;;;;;9.00;8.23;;;25.10;92.30;;;;;;5008350;28;20442;-52
2022/08/03 07:36:54;;;;;;;8.40;7.90;;;25.20;91.60;;;;;;5007702;28;20440;-52
2022/08/03 07:39:20;;;;;;;8.43;7.83;;;25.40;91.10;;;;;;5010417;28;20439;-51
2022/08/03 07:41:46;;;;;;;7.93;7.23;;;25.50;90.30;;;;;;5025043;28;20204;-51
2022/08/03 07:44:12;;;;;;;8.97;8.30;;;25.70;89.70;;;;;;5029481;28;20309;-52
2022/08/03 07:46:38;;;;;;;7.23;6.73;;;25.90;88.40;;;;;;5011408;28;20848;-51
2022/08/03 07:49:04;;;;;;;7.70;7.10;;;26.00;86.90;;;;;;5007946;28;20444;-50
2022/08/03 07:51:29;;;;;;;7.93;7.33;;;26.10;85.60;;;;;;5010489;28;20197;-52
2022/08/03 07:53:56;;;;;;;7.50;7.10;;;26.20;84.30;;;;;;5023943;28;20201;-51
2022/08/03 07:56:23;;;;;;;7.90;7.50;;;26.40;82.10;;;;;;5017738;28;20222;-51
2022/08/03 07:58:50;;;;;;;7.60;7.20;;;26.50;82.90;;;;;;5010765;28;20553;-51
2022/08/03 08:01:18;;;;;;;7.33;6.90;;;26.70;82.20;;;;;;5012844;28;20509;-50
2022/08/03 08:03:46;;;;;;;7.83;7.33;;;26.80;80.10;;;;;;5009312;28;20476;-55
2022/08/03 08:06:11;;;;;;;7.37;6.90;;;26.90;77.30;;;;;;5029140;28;20445;-53
2022/08/03 08:08:38;;;;;;;7.50;6.90;;;27.00;77.00;;;;;;5007066;28;20832;-51
2022/08/03 08:11:04;;;;;;;7.30;6.90;;;27.10;75.90;;;;;;5017760;28;20274;-50
2022/08/03 08:13:30;;;;;;;7.13;6.63;;;27.30;74.00;;;;;;5025932;28;20540;-52
2022/08/03 08:15:56;;;;;;;7.53;6.93;;;27.50;71.70;;;;;;5029403;28;20546;-56
2022/08/03 08:18:22;;;;;;;6.93;6.53;;;27.60;70.50;;;;;;5005981;28;20188;-55
2022/08/03 08:20:49;;;;;;;6.77;6.27;;;27.70;68.90;;;;;;5007743;28;20187;-54
2022/08/03 08:23:21;;;;;;;7.07;6.57;;;27.80;68.20;;;;;;5007493;28;20474;-50
2022/08/03 08:25:47;;;;;;;6.87;6.30;;;28.00;67.00;;;;;;5018454;28;20414;-52
2022/08/03 08:28:13;;;;;;;7.17;6.70;;;28.10;67.20;;;;;;5015847;28;20959;-53
2022/08/03 08:30:38;;;;;;;6.77;6.37;;;28.20;65.50;;;;;;5010122;28;20453;-52
2022/08/03 08:33:04;;;;;;;6.70;6.30;;;28.40;66.00;;;;;;5007159;28;20196;-53
2022/08/03 08:35:30;;;;;;;6.23;5.93;;;28.50;62.60;;;;;;5008958;28;20677;-51
2022/08/03 08:37:55;;;;;;;6.67;6.30;;;28.60;62.10;;;;;;5010260;28;20191;-55
2022/08/03 08:40:21;;;;;;;6.37;5.97;;;28.80;59.90;;;;;;5008411;28;20202;-49
2022/08/03 08:42:47;;;;;;;6.30;6.00;;;29.00;60.20;;;;;;5019911;28;21274;-53
2022/08/03 08:45:14;;;;;;;6.27;5.97;;;29.20;59.20;;;;;;5010754;28;20449;-54
2022/08/03 08:47:44;;;;;;;6.60;6.20;;;29.30;57.20;;;;;;5011152;28;21144;-52
2022/08/03 08:50:11;;;;;;;6.47;6.07;;;29.50;57.90;;;;;;5022511;28;20437;-49
2022/08/03 08:52:40;;;;;;;7.20;6.70;;;29.60;56.80;;;;;;5028481;28;20450;-52
2022/08/03 08:55:08;;;;;;;6.30;6.00;;;29.80;55.60;;;;;;5015353;28;20446;-47
2022/08/03 08:57:39;;;;;;;6.80;6.50;;;29.90;55.60;;;;;;5025652;28;20921;-55
2022/08/03 09:00:12;;;;;;;6.73;6.33;;;30.00;54.80;;;;;;5014127;28;20485;-53
2022/08/03 09:02:38;;;;;;;7.30;6.90;;;30.10;54.40;;;;;;5011540;28;20989;-53
2022/08/03 09:05:04;;;;;;;6.67;6.37;;;30.40;52.10;;;;;;5003986;28;20494;-52
2022/08/03 09:07:29;;;;;;;6.33;6.03;;;30.30;51.40;;;;;;5020963;28;20185;-51
2022/08/03 09:09:55;;;;;;;6.60;6.20;;;30.30;51.80;;;;;;5022013;28;20489;-52
2022/08/03 09:12:21;;;;;;;6.97;6.57;;;30.30;50.90;;;;;;5011352;28;20207;-56
2022/08/03 09:14:47;;;;;;;6.67;6.20;;;30.40;51.30;;;;;;5024542;28;20203;-54
2022/08/03 09:17:12;;;;;;;6.70;6.00;;;30.30;50.50;;;;;;5011694;28;20278;-53
2022/08/03 09:19:38;;;;;;;7.03;6.43;;;30.30;51.70;;;;;;5017001;28;20272;-53
2022/08/03 09:22:08;;;;;;;6.50;6.00;;;30.40;50.90;;;;;;5026957;28;20868;-50
2022/08/03 09:24:33;;;;;;;6.27;5.97;;;30.60;51.60;;;;;;5031683;28;20210;-58
2022/08/03 09:26:59;;;;;;;6.87;6.47;;;30.80;51.20;;;;;;5025088;28;20437;-52
2022/08/03 09:29:25;;;;;;;6.80;6.40;;;31.00;50.70;;;;;;5020674;28;20195;-51
2022/08/03 09:32:01;;;;;;;6.60;6.20;;;31.30;49.40;;;;;;5011238;28;20263;-54
2022/08/03 09:34:27;;;;;;;6.50;6.20;;;31.50;47.50;;;;;;5012884;28;20598;-55
2022/08/03 09:36:54;;;;;;;7.17;6.77;;;31.50;46.90;;;;;;5022804;28;20434;-50
2022/08/03 09:39:24;;;;;;;6.03;5.73;;;31.70;45.90;;;;;;5031459;28;20453;-53
2022/08/03 09:42:16;;;;;;;6.70;6.40;;;31.90;46.50;;;;;;5015180;28;20454;-52
2022/08/03 09:44:44;;;;;;;6.07;5.77;;;32.10;44.30;;;;;;5030544;28;21344;-57
2022/08/03 09:47:11;;;;;;;5.63;5.33;;;32.30;43.50;;;;;;5012393;28;21091;-56
2022/08/03 09:49:40;;;;;;;6.63;6.33;;;32.40;42.40;;;;;;5018568;28;20428;-54
2022/08/03 09:52:15;;;;;;;6.07;5.77;;;32.50;40.70;;;;;;5030350;28;20448;-52
2022/08/03 09:54:41;;;;;;;6.33;5.93;;;32.60;39.80;;;;;;5031650;28;20430;-54
2022/08/03 09:57:07;;;;;;;6.43;6.03;;;32.70;40.60;;;;;;5017683;28;20446;-53
2022/08/03 09:59:33;;;;;;;6.83;6.43;;;32.80;38.30;;;;;;5011582;28;20485;-55
2022/08/03 10:01:59;;;;;;;6.73;6.33;;;32.90;38.50;;;;;;5010208;28;20442;-58
2022/08/03 10:04:25;;;;;;;6.90;6.47;;;33.00;37.60;;;;;;5019652;28;20215;-54
2022/08/03 10:07:09;;;;;;;7.30;6.70;;;33.10;37.30;;;;;;5020246;28;20931;-51
2022/08/03 10:09:35;;;;;;;7.00;6.60;;;33.10;36.30;;;;;;5022131;28;20425;-54
2022/08/03 10:12:09;;;;;;;6.40;6.00;;;33.00;37.30;;;;;;5016795;28;20473;-50
2022/08/03 10:14:37;;;;;;;6.83;6.33;;;32.80;36.50;;;;;;5023235;28;20521;-49
2022/08/03 10:17:04;;;;;;;7.40;6.90;;;32.70;36.40;;;;;;5017448;28;20449;-54
2022/08/03 10:19:29;;;;;;;6.17;5.80;;;32.50;37.10;;;;;;5013084;28;20489;-55
2022/08/03 10:22:00;;;;;;;6.80;6.50;;;32.40;36.70;;;;;;5028437;28;20437;-53
2022/08/03 10:24:28;;;;;;;7.20;6.80;;;32.50;38.00;;;;;;5031041;28;20669;-53
2022/08/03 10:27:02;;;;;;;6.90;6.40;;;32.70;37.60;;;;;;5025005;28;20443;-54
2022/08/03 10:29:32;;;;;;;6.47;6.17;;;33.00;36.10;;;;;;5011511;28;20989;-54
2022/08/03 10:31:59;;;;;;;7.17;6.60;;;32.90;35.20;;;;;;5018090;28;20455;-54
2022/08/03 10:34:34;;;;;;;6.43;6.13;;;32.70;34.90;;;;;;5013521;28;20453;-54
2022/08/03 10:37:02;;;;;;;7.13;6.47;;;32.80;35.30;;;;;;5031044;28;20843;-54
2022/08/03 10:39:28;;;;;;;7.63;6.90;;;32.90;36.10;;;;;;5015739;28;20927;-52
2022/08/03 10:41:57;;;;;;;7.17;6.77;;;33.20;35.50;;;;;;5018710;28;20434;-55
2022/08/03 10:44:25;;;;;;;7.47;6.90;;;33.40;35.60;;;;;;5013452;28;20478;-55
2022/08/03 10:46:52;;;;;;;6.60;6.20;;;33.60;34.80;;;;;;5001834;28;20437;-53
2022/08/03 10:49:19;;;;;;;6.77;6.47;;;33.80;35.10;;;;;;5013227;28;20418;-54
2022/08/03 10:51:46;;;;;;;7.17;6.77;;;34.00;33.80;;;;;;5018691;28;20505;-56
2022/08/03 10:57:33;;;;;;;6.60;6.20;;;34.20;32.90;;;;;;5019282;28;20417;-54
2022/08/03 10:57:42;;;;;;;7.30;6.90;;;34.40;33.10;;;;;;5017229;28;20775;-51
2022/08/03 11:00:09;;;;;;;6.80;6.50;;;34.60;31.60;;;;;;5013277;28;20482;-52
2022/08/03 11:03:05;;;;;;;6.87;6.47;;;34.70;29.90;;;;;;5016414;28;20423;-54
2022/08/03 11:05:40;;;;;;;6.50;6.07;;;34.60;30.30;;;;;;5014006;28;20415;-57
2022/08/03 11:08:41;;;;;;;6.83;6.43;;;34.60;29.90;;;;;;5013587;28;20449;-53
2022/08/03 11:11:16;;;;;;;6.50;6.20;;;34.30;30.30;;;;;;4988706;28;20426;-55
2022/08/03 11:14:07;;;;;;;6.60;6.27;;;34.30;31.60;;;;;;5013239;28;20433;-56
2022/08/03 11:16:38;;;;;;;6.43;6.00;;;34.60;30.80;;;;;;5013259;28;20415;-52
2022/08/03 11:19:06;;;;;;;6.77;6.43;;;34.70;29.40;;;;;;5019829;28;20428;-54
2022/08/03 11:21:47;;;;;;;7.23;6.87;;;34.60;29.90;;;;;;5024527;28;20936;-54
2022/08/03 11:24:42;;;;;;;7.07;6.67;;;34.50;30.00;;;;;;5003657;28;20960;-53
2022/08/03 11:27:16;;;;;;;6.80;6.40;;;34.40;29.40;;;;;;5012991;28;20783;-54
2022/08/03 11:30:06;;;;;;;6.70;6.33;;;34.40;29.40;;;;;;5010530;28;20444;-55
2022/08/03 11:32:46;;;;;;;7.70;7.20;;;34.50;29.80;;;;;;5010407;28;20979;-52
2022/08/03 11:35:15;;;;;;;6.30;5.90;;;34.40;29.20;;;;;;5018493;28;20924;-51
2022/08/03 11:37:53;;;;;;;6.80;6.50;;;34.40;28.80;;;;;;5010969;28;20495;-54
2022/08/03 11:40:34;;;;;;;6.70;6.30;;;34.60;29.10;;;;;;4995847;28;20407;-56
2022/08/03 11:43:00;;;;;;;6.50;6.20;;;34.90;28.60;;;;;;4992694;28;20494;-54
2022/08/03 11:45:26;;;;;;;7.57;6.90;;;35.00;29.10;;;;;;5004898;28;20947;-57
2022/08/03 11:47:54;;;;;;;7.50;6.90;;;35.20;28.80;;;;;;5007822;28;20191;-58
2022/08/03 11:50:20;;;;;;;6.50;6.13;;;35.20;28.80;;;;;;5011922;28;20610;-52
2022/08/03 11:52:46;;;;;;;7.03;6.63;;;35.40;28.90;;;;;;5011011;28;20434;-56
2022/08/03 11:55:14;;;;;;;6.20;5.90;;;35.50;28.50;;;;;;5012773;28;20411;-56
2022/08/03 11:57:40;;;;;;;6.63;6.23;;;35.80;28.10;;;;;;5020338;28;20786;-56
2022/08/03 12:00:27;;;;;;;6.77;6.40;;;36.10;27.60;;;;;;5016919;28;20953;-56
2022/08/03 12:03:02;;;;;;;6.80;6.30;;;36.30;26.30;;;;;;5020375;28;20487;-56
2022/08/03 12:05:40;;;;;;;6.43;6.13;;;36.50;26.20;;;;;;5022493;28;20421;-53
2022/08/03 12:08:07;;;;;;;6.90;6.50;;;36.80;25.50;;;;;;5021742;28;20498;-51
2022/08/03 12:10:34;;;;;;;6.83;6.43;;;36.80;25.20;;;;;;5005315;28;20442;-54
2022/08/03 12:13:01;;;;;;;6.10;5.90;;;37.00;25.10;;;;;;5013296;28;20442;-55
2022/08/03 12:15:29;;;;;;;6.40;6.10;;;37.00;24.80;;;;;;5019615;28;20487;-52
2022/08/03 12:17:56;;;;;;;6.53;6.23;;;37.10;24.50;;;;;;5039814;28;20504;-56
2022/08/03 12:20:24;;;;;;;6.53;6.03;;;37.30;25.00;;;;;;5000653;28;20458;-50
2022/08/03 12:22:50;;;;;;;6.40;6.00;;;37.40;24.00;;;;;;5007554;28;20454;-53
2022/08/03 12:25:24;;;;;;;6.37;6.07;;;37.60;24.40;;;;;;5025730;28;20433;-55
2022/08/03 12:27:51;;;;;;;6.30;5.90;;;37.80;23.70;;;;;;5018549;28;20183;-55
2022/08/03 12:30:17;;;;;;;6.80;6.23;;;38.00;23.10;;;;;;5011346;28;20842;-53
2022/08/03 12:32:43;;;;;;;6.00;5.70;;;38.20;22.80;;;;;;5014204;28;20421;-57
2022/08/03 12:35:20;;;;;;;6.80;6.07;;;38.40;22.70;;;;;;5028640;28;20532;-55
2022/08/03 12:37:47;;;;;;;6.27;5.97;;;38.70;21.90;;;;;;5025021;28;20195;-55
2022/08/03 12:40:14;;;;;;;7.30;6.90;;;38.70;21.30;;;;;;5018702;28;20433;-54
2022/08/03 12:42:41;;;;;;;6.73;6.43;;;38.90;21.40;;;;;;5014707;28;20497;-56
2022/08/03 12:45:23;;;;;;;7.33;7.03;;;39.00;21.30;;;;;;5020618;28;20979;-56
2022/08/03 12:47:55;;;;;;;6.83;6.43;;;38.80;20.70;;;;;;5023057;28;20444;-56